sensor_id;sensor_type;location;lat;lon;timestamp;temperature;humidity
32334;DHT22;18810;53.040;8.850;2023-12-28T00:01:12;8.20;99.90
32334;DHT22;18810;53.040;8.850;2023-12-28T00:03:38;8.20;99.90
32334;DHT22;18810;53.040;8.850;2023-12-28T00:06:06;8.10;99.90
32334;DHT22;18810;53.040;8.850;2023-12-28T00:08:32;8.10;99.90
32334;DHT22;18810;53.040;8.850;2023-12-28T00:10:58;8.10;99.90
32334;DHT22;18810;53.040;8.850;2023-12-28T00:13:24;7.80;99.90
32334;DHT22;18810;53.040;8.850;2023-12-28T00:15:49;8.00;99.90
32334;DHT22;18810;53.040;8.850;2023-12-28T00:18:15;8.00;99.90
32334;DHT22;18810;53.040;8.850;2023-12-28T00:20:41;8.00;99.90
32334;DHT22;18810;53.040;8.850;2023-12-28T00:23:06;8.00;99.90
32334;DHT22;18810;53.040;8.850;2023-12-28T00:25:32;8.00;99.90
32334;DHT22;18810;53.040;8.850;2023-12-28T00:27:58;8.10;99.90
32334;DHT22;18810;53.040;8.850;2023-12-28T00:30:23;8.10;99.90
32334;DHT22;18810;53.040;8.850;2023-12-28T00:32:49;8.20;99.90
32334;DHT22;18810;53.040;8.850;2023-12-28T00:35:15;8.20;99.90
32334;DHT22;18810;53.040;8.850;2023-12-28T00:37:41;8.20;99.90
32334;DHT22;18810;53.040;8.850;2023-12-28T00:40:07;8.30;99.90
32334;DHT22;18810;53.040;8.850;2023-12-28T00:42:32;8.30;99.90
32334;DHT22;18810;53.040;8.850;2023-12-28T00:47:25;8.30;99.90
32334;DHT22;18810;53.040;8.850;2023-12-28T00:49:50;8.30;99.90
32334;DHT22;18810;53.040;8.850;2023-12-28T00:52:16;8.40;99.90
32334;DHT22;18810;53.040;8.850;2023-12-28T00:54:42;8.30;99.90
32334;DHT22;18810;53.040;8.850;2023-12-28T00:57:07;8.30;99.90
32334;DHT22;18810;53.040;8.850;2023-12-28T00:59:33;8.30;99.90
32334;DHT22;18810;53.040;8.850;2023-12-28T01:01:59;8.30;99.90
32334;DHT22;18810;53.040;8.850;2023-12-28T01:04:24;8.30;99.90
32334;DHT22;18810;53.040;8.850;2023-12-28T01:06:51;8.30;99.90
32334;DHT22;18810;53.040;8.850;2023-12-28T01:09:17;8.30;99.90
32334;DHT22;18810;53.040;8.850;2023-12-28T01:11:43;8.40;99.90
32334;DHT22;18810;53.040;8.850;2023-12-28T01:14:08;8.30;99.90
32334;DHT22;18810;53.040;8.850;2023-12-28T01:16:34;8.30;99.90
32334;DHT22;18810;53.040;8.850;2023-12-28T01:19:01;8.30;99.90
32334;DHT22;18810;53.040;8.850;2023-12-28T01:21:27;8.40;99.90
32334;DHT22;18810;53.040;8.850;2023-12-28T01:23:54;8.40;99.90
32334;DHT22;18810;53.040;8.850;2023-12-28T01:26:20;8.40;99.90
32334;DHT22;18810;53.040;8.850;2023-12-28T01:28:46;8.50;99.90
32334;DHT22;18810;53.040;8.850;2023-12-28T01:31:12;8.50;99.90
32334;DHT22;18810;53.040;8.850;2023-12-28T01:33:37;8.50;99.90
32334;DHT22;18810;53.040;8.850;2023-12-28T01:36:20;8.50;99.90
32334;DHT22;18810;53.040;8.850;2023-12-28T01:38:46;8.50;99.90
32334;DHT22;18810;53.040;8.850;2023-12-28T01:41:12;8.50;99.90
32334;DHT22;18810;53.040;8.850;2023-12-28T01:43:39;8.60;99.90
32334;DHT22;18810;53.040;8.850;2023-12-28T01:46:17;8.60;99.90
32334;DHT22;18810;53.040;8.850;2023-12-28T01:48:44;8.70;99.90
32334;DHT22;18810;53.040;8.850;2023-12-28T01:51:12;8.70;99.90
32334;DHT22;18810;53.040;8.850;2023-12-28T01:53:38;8.70;99.90
32334;DHT22;18810;53.040;8.850;2023-12-28T01:56:05;8.80;99.90
32334;DHT22;18810;53.040;8.850;2023-12-28T01:58:33;8.80;99.90
32334;DHT22;18810;53.040;8.850;2023-12-28T02:01:01;8.80;99.90
32334;DHT22;18810;53.040;8.850;2023-12-28T02:03:27;8.80;99.90
32334;DHT22;18810;53.040;8.850;2023-12-28T02:05:53;8.80;99.90
32334;DHT22;18810;53.040;8.850;2023-12-28T02:08:20;8.80;99.90
32334;DHT22;18810;53.040;8.850;2023-12-28T02:10:46;8.80;99.90
32334;DHT22;18810;53.040;8.850;2023-12-28T02:13:11;8.70;99.90
32334;DHT22;18810;53.040;8.850;2023-12-28T02:15:37;8.80;99.90
32334;DHT22;18810;53.040;8.850;2023-12-28T02:18:12;8.80;99.90
32334;DHT22;18810;53.040;8.850;2023-12-28T02:20:43;8.80;99.90
32334;DHT22;18810;53.040;8.850;2023-12-28T02:23:10;8.80;99.90
32334;DHT22;18810;53.040;8.850;2023-12-28T02:25:35;8.80;99.90
32334;DHT22;18810;53.040;8.850;2023-12-28T02:28:01;8.80;99.90
32334;DHT22;18810;53.040;8.850;2023-12-28T02:30:27;8.70;99.90
32334;DHT22;18810;53.040;8.850;2023-12-28T02:33:29;8.70;99.90
32334;DHT22;18810;53.040;8.850;2023-12-28T02:36:06;8.60;99.90
32334;DHT22;18810;53.040;8.850;2023-12-28T02:38:37;8.70;99.90
32334;DHT22;18810;53.040;8.850;2023-12-28T02:41:03;8.70;99.90
32334;DHT22;18810;53.040;8.850;2023-12-28T02:43:29;8.80;99.90
32334;DHT22;18810;53.040;8.850;2023-12-28T02:45:55;8.80;99.90
32334;DHT22;18810;53.040;8.850;2023-12-28T02:48:21;8.80;99.90
32334;DHT22;18810;53.040;8.850;2023-12-28T02:50:46;8.80;99.90
32334;DHT22;18810;53.040;8.850;2023-12-28T02:53:13;8.80;99.90
32334;DHT22;18810;53.040;8.850;2023-12-28T02:55:38;8.70;99.90
32334;DHT22;18810;53.040;8.850;2023-12-28T02:58:04;8.70;99.90
32334;DHT22;18810;53.040;8.850;2023-12-28T03:00:30;8.70;99.90
32334;DHT22;18810;53.040;8.850;2023-12-28T03:02:56;8.70;99.90
32334;DHT22;18810;53.040;8.850;2023-12-28T03:05:22;8.70;99.90
32334;DHT22;18810;53.040;8.850;2023-12-28T03:07:48;8.70;99.90
32334;DHT22;18810;53.040;8.850;2023-12-28T03:10:13;8.70;99.90
32334;DHT22;18810;53.040;8.850;2023-12-28T03:12:39;8.70;99.90
32334;DHT22;18810;53.040;8.850;2023-12-28T03:15:05;8.80;99.90
32334;DHT22;18810;53.040;8.850;2023-12-28T03:17:31;8.80;99.90
32334;DHT22;18810;53.040;8.850;2023-12-28T03:20:01;8.80;99.90
32334;DHT22;18810;53.040;8.850;2023-12-28T03:22:26;8.70;99.90
32334;DHT22;18810;53.040;8.850;2023-12-28T03:24:52;8.80;99.90
32334;DHT22;18810;53.040;8.850;2023-12-28T03:27:18;8.80;99.90
32334;DHT22;18810;53.040;8.850;2023-12-28T03:29:44;8.70;99.90
32334;DHT22;18810;53.040;8.850;2023-12-28T03:32:10;8.70;99.90
32334;DHT22;18810;53.040;8.850;2023-12-28T03:34:35;8.70;99.90
32334;DHT22;18810;53.040;8.850;2023-12-28T03:37:01;8.70;99.90
32334;DHT22;18810;53.040;8.850;2023-12-28T03:39:27;8.70;99.90
32334;DHT22;18810;53.040;8.850;2023-12-28T03:41:53;8.70;99.90
32334;DHT22;18810;53.040;8.850;2023-12-28T03:44:19;8.70;99.90
32334;DHT22;18810;53.040;8.850;2023-12-28T03:46:51;8.80;99.90
32334;DHT22;18810;53.040;8.850;2023-12-28T03:49:18;8.70;99.90
32334;DHT22;18810;53.040;8.850;2023-12-28T03:51:44;8.70;99.90
32334;DHT22;18810;53.040;8.850;2023-12-28T03:54:10;8.80;99.90
32334;DHT22;18810;53.040;8.850;2023-12-28T03:56:35;8.70;99.90
32334;DHT22;18810;53.040;8.850;2023-12-28T03:59:02;8.80;99.90
32334;DHT22;18810;53.040;8.850;2023-12-28T04:01:28;8.80;99.90
32334;DHT22;18810;53.040;8.850;2023-12-28T04:03:54;8.80;99.90
32334;DHT22;18810;53.040;8.850;2023-12-28T04:06:19;8.80;99.90
32334;DHT22;18810;53.040;8.850;2023-12-28T04:08:45;8.80;99.90
32334;DHT22;18810;53.040;8.850;2023-12-28T04:11:11;8.80;99.90
32334;DHT22;18810;53.040;8.850;2023-12-28T04:13:37;8.80;99.90
32334;DHT22;18810;53.040;8.850;2023-12-28T04:16:03;8.80;99.90
32334;DHT22;18810;53.040;8.850;2023-12-28T04:18:29;8.80;99.90
32334;DHT22;18810;53.040;8.850;2023-12-28T04:20:55;8.70;99.90
32334;DHT22;18810;53.040;8.850;2023-12-28T04:23:21;8.80;99.90
32334;DHT22;18810;53.040;8.850;2023-12-28T04:25:46;8.80;99.90
32334;DHT22;18810;53.040;8.850;2023-12-28T04:28:13;8.70;99.90
32334;DHT22;18810;53.040;8.850;2023-12-28T04:30:38;8.70;99.90
32334;DHT22;18810;53.040;8.850;2023-12-28T04:33:04;8.80;99.90
32334;DHT22;18810;53.040;8.850;2023-12-28T04:35:30;8.70;99.90
32334;DHT22;18810;53.040;8.850;2023-12-28T04:37:56;8.70;99.90
32334;DHT22;18810;53.040;8.850;2023-12-28T04:40:22;8.70;99.90
32334;DHT22;18810;53.040;8.850;2023-12-28T04:42:47;8.70;99.90
32334;DHT22;18810;53.040;8.850;2023-12-28T04:45:13;8.70;99.90
32334;DHT22;18810;53.040;8.850;2023-12-28T04:47:39;8.70;99.90
32334;DHT22;18810;53.040;8.850;2023-12-28T04:50:06;8.70;99.90
32334;DHT22;18810;53.040;8.850;2023-12-28T04:52:32;8.70;99.90
32334;DHT22;18810;53.040;8.850;2023-12-28T04:54:58;8.70;99.90
32334;DHT22;18810;53.040;8.850;2023-12-28T04:57:24;8.70;99.90
32334;DHT22;18810;53.040;8.850;2023-12-28T04:59:51;8.70;99.90
32334;DHT22;18810;53.040;8.850;2023-12-28T05:02:17;8.70;99.90
32334;DHT22;18810;53.040;8.850;2023-12-28T05:04:43;8.70;99.90
32334;DHT22;18810;53.040;8.850;2023-12-28T05:07:09;8.70;99.90
32334;DHT22;18810;53.040;8.850;2023-12-28T05:09:34;8.70;99.90
32334;DHT22;18810;53.040;8.850;2023-12-28T05:12:00;8.70;99.90
32334;DHT22;18810;53.040;8.850;2023-12-28T05:16:52;8.60;99.90
32334;DHT22;18810;53.040;8.850;2023-12-28T05:19:18;8.70;99.90
32334;DHT22;18810;53.040;8.850;2023-12-28T05:21:43;8.70;99.90
32334;DHT22;18810;53.040;8.850;2023-12-28T05:24:09;8.70;99.90
32334;DHT22;18810;53.040;8.850;2023-12-28T05:26:35;8.70;99.90
32334;DHT22;18810;53.040;8.850;2023-12-28T05:29:01;8.70;99.90
32334;DHT22;18810;53.040;8.850;2023-12-28T05:31:26;8.70;99.90
32334;DHT22;18810;53.040;8.850;2023-12-28T05:33:52;8.60;99.90
32334;DHT22;18810;53.040;8.850;2023-12-28T05:36:18;8.70;99.90
32334;DHT22;18810;53.040;8.850;2023-12-28T05:38:44;8.70;99.90
32334;DHT22;18810;53.040;8.850;2023-12-28T05:41:10;8.80;99.90
32334;DHT22;18810;53.040;8.850;2023-12-28T05:43:37;8.80;99.90
32334;DHT22;18810;53.040;8.850;2023-12-28T05:46:03;8.90;99.90
32334;DHT22;18810;53.040;8.850;2023-12-28T05:48:28;8.90;99.90
32334;DHT22;18810;53.040;8.850;2023-12-28T05:50:54;9.00;99.90
32334;DHT22;18810;53.040;8.850;2023-12-28T05:53:20;9.00;99.90
32334;DHT22;18810;53.040;8.850;2023-12-28T05:55:45;9.00;99.90
32334;DHT22;18810;53.040;8.850;2023-12-28T05:58:11;9.00;99.90
32334;DHT22;18810;53.040;8.850;2023-12-28T06:00:37;9.00;99.90
32334;DHT22;18810;53.040;8.850;2023-12-28T06:03:04;9.10;99.90
32334;DHT22;18810;53.040;8.850;2023-12-28T06:05:31;9.10;99.90
32334;DHT22;18810;53.040;8.850;2023-12-28T06:07:57;9.10;99.90
32334;DHT22;18810;53.040;8.850;2023-12-28T06:10:23;9.00;99.90
32334;DHT22;18810;53.040;8.850;2023-12-28T06:12:50;9.10;99.90
32334;DHT22;18810;53.040;8.850;2023-12-28T06:15:15;9.10;99.90
32334;DHT22;18810;53.040;8.850;2023-12-28T06:17:41;9.10;99.90
32334;DHT22;18810;53.040;8.850;2023-12-28T06:20:07;9.10;99.90
32334;DHT22;18810;53.040;8.850;2023-12-28T06:22:36;9.10;99.90
32334;DHT22;18810;53.040;8.850;2023-12-28T06:25:02;9.50;99.90
32334;DHT22;18810;53.040;8.850;2023-12-28T06:27:29;9.10;99.90
32334;DHT22;18810;53.040;8.850;2023-12-28T06:29:54;9.20;99.90
32334;DHT22;18810;53.040;8.850;2023-12-28T06:32:20;9.20;99.90
32334;DHT22;18810;53.040;8.850;2023-12-28T06:34:46;9.30;99.90
32334;DHT22;18810;53.040;8.850;2023-12-28T06:37:12;9.40;99.90
32334;DHT22;18810;53.040;8.850;2023-12-28T06:39:39;9.40;99.90
32334;DHT22;18810;53.040;8.850;2023-12-28T06:42:05;9.50;99.90
32334;DHT22;18810;53.040;8.850;2023-12-28T06:44:30;9.50;99.90
32334;DHT22;18810;53.040;8.850;2023-12-28T06:46:56;9.60;99.90
32334;DHT22;18810;53.040;8.850;2023-12-28T06:49:22;9.60;99.90
32334;DHT22;18810;53.040;8.850;2023-12-28T06:51:49;9.70;99.90
32334;DHT22;18810;53.040;8.850;2023-12-28T06:54:14;9.70;99.90
32334;DHT22;18810;53.040;8.850;2023-12-28T06:56:40;9.70;99.90
32334;DHT22;18810;53.040;8.850;2023-12-28T06:59:06;9.80;99.90
32334;DHT22;18810;53.040;8.850;2023-12-28T07:01:32;9.80;99.90
32334;DHT22;18810;53.040;8.850;2023-12-28T07:03:57;9.80;99.90
32334;DHT22;18810;53.040;8.850;2023-12-28T07:11:17;9.90;99.90
32334;DHT22;18810;53.040;8.850;2023-12-28T07:13:42;10.00;99.90
32334;DHT22;18810;53.040;8.850;2023-12-28T07:18:34;10.10;99.90
32334;DHT22;18810;53.040;8.850;2023-12-28T07:21:00;10.00;99.90
32334;DHT22;18810;53.040;8.850;2023-12-28T07:23:26;10.10;99.90
32334;DHT22;18810;53.040;8.850;2023-12-28T07:25:52;10.20;99.90
32334;DHT22;18810;53.040;8.850;2023-12-28T07:28:18;10.20;99.90
32334;DHT22;18810;53.040;8.850;2023-12-28T07:30:44;10.20;99.90
32334;DHT22;18810;53.040;8.850;2023-12-28T07:33:10;10.20;99.90
32334;DHT22;18810;53.040;8.850;2023-12-28T07:35:35;10.20;99.90
32334;DHT22;18810;53.040;8.850;2023-12-28T07:38:01;10.30;99.90
32334;DHT22;18810;53.040;8.850;2023-12-28T07:40:27;10.30;99.90
32334;DHT22;18810;53.040;8.850;2023-12-28T07:42:53;10.40;99.90
32334;DHT22;18810;53.040;8.850;2023-12-28T07:45:19;10.30;99.90
32334;DHT22;18810;53.040;8.850;2023-12-28T07:47:49;10.40;99.90
32334;DHT22;18810;53.040;8.850;2023-12-28T07:50:16;10.40;99.90
32334;DHT22;18810;53.040;8.850;2023-12-28T07:52:42;10.50;99.90
32334;DHT22;18810;53.040;8.850;2023-12-28T07:55:08;10.60;99.90
32334;DHT22;18810;53.040;8.850;2023-12-28T07:57:34;10.60;99.90
32334;DHT22;18810;53.040;8.850;2023-12-28T08:00:01;10.60;99.90
32334;DHT22;18810;53.040;8.850;2023-12-28T08:02:26;10.60;99.90
32334;DHT22;18810;53.040;8.850;2023-12-28T08:04:53;10.60;99.90
32334;DHT22;18810;53.040;8.850;2023-12-28T08:07:19;10.70;99.90
32334;DHT22;18810;53.040;8.850;2023-12-28T08:09:44;10.70;99.90
32334;DHT22;18810;53.040;8.850;2023-12-28T08:12:10;10.70;99.90
32334;DHT22;18810;53.040;8.850;2023-12-28T08:14:36;10.70;99.90
32334;DHT22;18810;53.040;8.850;2023-12-28T08:17:02;10.70;99.90
32334;DHT22;18810;53.040;8.850;2023-12-28T08:19:28;10.80;99.90
32334;DHT22;18810;53.040;8.850;2023-12-28T08:21:54;10.80;99.90
32334;DHT22;18810;53.040;8.850;2023-12-28T08:24:20;10.80;99.90
32334;DHT22;18810;53.040;8.850;2023-12-28T08:26:45;10.90;99.90
32334;DHT22;18810;53.040;8.850;2023-12-28T08:29:11;10.90;99.90
32334;DHT22;18810;53.040;8.850;2023-12-28T08:31:37;10.90;99.90
32334;DHT22;18810;53.040;8.850;2023-12-28T08:34:02;10.90;99.90
32334;DHT22;18810;53.040;8.850;2023-12-28T08:36:28;11.00;99.90
32334;DHT22;18810;53.040;8.850;2023-12-28T08:38:54;11.00;99.90
32334;DHT22;18810;53.040;8.850;2023-12-28T08:41:21;11.10;99.90
32334;DHT22;18810;53.040;8.850;2023-12-28T08:43:49;11.10;99.90
32334;DHT22;18810;53.040;8.850;2023-12-28T08:46:15;11.10;99.90
32334;DHT22;18810;53.040;8.850;2023-12-28T08:48:44;11.00;99.90
32334;DHT22;18810;53.040;8.850;2023-12-28T08:51:10;11.00;99.90
32334;DHT22;18810;53.040;8.850;2023-12-28T08:53:36;11.00;99.90
32334;DHT22;18810;53.040;8.850;2023-12-28T08:56:12;11.10;99.90
32334;DHT22;18810;53.040;8.850;2023-12-28T08:58:38;11.10;99.90
32334;DHT22;18810;53.040;8.850;2023-12-28T09:01:04;11.10;99.90
32334;DHT22;18810;53.040;8.850;2023-12-28T09:03:30;11.10;99.90
32334;DHT22;18810;53.040;8.850;2023-12-28T09:05:55;11.10;99.90
32334;DHT22;18810;53.040;8.850;2023-12-28T09:08:21;11.10;99.90
32334;DHT22;18810;53.040;8.850;2023-12-28T09:10:47;11.10;99.90
32334;DHT22;18810;53.040;8.850;2023-12-28T09:13:16;11.10;99.90
32334;DHT22;18810;53.040;8.850;2023-12-28T09:15:45;11.10;99.90
32334;DHT22;18810;53.040;8.850;2023-12-28T09:18:11;12.80;99.90
32334;DHT22;18810;53.040;8.850;2023-12-28T09:20:37;11.20;99.90
32334;DHT22;18810;53.040;8.850;2023-12-28T09:23:02;11.30;99.90
32334;DHT22;18810;53.040;8.850;2023-12-28T09:25:28;11.30;99.90
32334;DHT22;18810;53.040;8.850;2023-12-28T09:27:54;11.30;99.90
32334;DHT22;18810;53.040;8.850;2023-12-28T09:30:19;11.20;99.90
32334;DHT22;18810;53.040;8.850;2023-12-28T09:32:45;11.30;99.90
32334;DHT22;18810;53.040;8.850;2023-12-28T09:35:11;11.40;99.90
32334;DHT22;18810;53.040;8.850;2023-12-28T09:37:36;11.40;99.90
32334;DHT22;18810;53.040;8.850;2023-12-28T09:40:02;11.50;99.90
32334;DHT22;18810;53.040;8.850;2023-12-28T09:42:34;11.40;99.90
32334;DHT22;18810;53.040;8.850;2023-12-28T09:45:04;11.60;99.90
32334;DHT22;18810;53.040;8.850;2023-12-28T09:47:32;11.50;99.90
32334;DHT22;18810;53.040;8.850;2023-12-28T09:49:58;11.60;99.90
32334;DHT22;18810;53.040;8.850;2023-12-28T09:52:24;11.60;99.90
32334;DHT22;18810;53.040;8.850;2023-12-28T09:54:49;11.70;99.90
32334;DHT22;18810;53.040;8.850;2023-12-28T09:57:15;11.70;99.90
32334;DHT22;18810;53.040;8.850;2023-12-28T09:59:41;11.70;99.90
32334;DHT22;18810;53.040;8.850;2023-12-28T10:02:08;11.70;99.90
32334;DHT22;18810;53.040;8.850;2023-12-28T10:04:34;11.70;99.90
32334;DHT22;18810;53.040;8.850;2023-12-28T10:06:59;11.70;99.90
32334;DHT22;18810;53.040;8.850;2023-12-28T10:09:25;11.60;99.90
32334;DHT22;18810;53.040;8.850;2023-12-28T10:11:53;11.60;99.90
32334;DHT22;18810;53.040;8.850;2023-12-28T10:14:20;11.60;99.90
32334;DHT22;18810;53.040;8.850;2023-12-28T10:16:46;11.60;99.90
32334;DHT22;18810;53.040;8.850;2023-12-28T10:19:12;11.60;99.90
32334;DHT22;18810;53.040;8.850;2023-12-28T10:21:42;11.50;99.90
32334;DHT22;18810;53.040;8.850;2023-12-28T10:24:10;11.50;99.90
32334;DHT22;18810;53.040;8.850;2023-12-28T10:26:36;11.50;99.90
32334;DHT22;18810;53.040;8.850;2023-12-28T10:29:02;11.50;99.90
32334;DHT22;18810;53.040;8.850;2023-12-28T10:31:29;11.50;99.90
32334;DHT22;18810;53.040;8.850;2023-12-28T10:33:58;11.50;99.90
32334;DHT22;18810;53.040;8.850;2023-12-28T10:36:25;11.60;99.90
32334;DHT22;18810;53.040;8.850;2023-12-28T10:38:53;11.50;99.90
32334;DHT22;18810;53.040;8.850;2023-12-28T10:41:20;11.60;99.90
32334;DHT22;18810;53.040;8.850;2023-12-28T10:46:26;11.60;99.90
32334;DHT22;18810;53.040;8.850;2023-12-28T10:48:59;11.60;99.90
32334;DHT22;18810;53.040;8.850;2023-12-28T10:51:25;11.50;99.90
32334;DHT22;18810;53.040;8.850;2023-12-28T11:01:44;11.60;99.90
32334;DHT22;18810;53.040;8.850;2023-12-28T11:06:56;11.80;99.90
32334;DHT22;18810;53.040;8.850;2023-12-28T11:09:24;11.80;99.90
32334;DHT22;18810;53.040;8.850;2023-12-28T11:11:53;11.90;99.90
32334;DHT22;18810;53.040;8.850;2023-12-28T11:14:20;12.70;99.90
32334;DHT22;18810;53.040;8.850;2023-12-28T11:16:46;11.90;99.90
32334;DHT22;18810;53.040;8.850;2023-12-28T11:19:13;11.90;99.90
32334;DHT22;18810;53.040;8.850;2023-12-28T11:21:39;12.00;99.90
32334;DHT22;18810;53.040;8.850;2023-12-28T11:24:06;12.10;99.90
32334;DHT22;18810;53.040;8.850;2023-12-28T11:26:32;12.20;99.90
32334;DHT22;18810;53.040;8.850;2023-12-28T11:29:04;12.20;99.90
32334;DHT22;18810;53.040;8.850;2023-12-28T11:31:34;12.10;99.90
32334;DHT22;18810;53.040;8.850;2023-12-28T11:34:00;12.10;99.90
32334;DHT22;18810;53.040;8.850;2023-12-28T11:36:34;12.00;99.90
32334;DHT22;18810;53.040;8.850;2023-12-28T11:39:05;12.00;99.90
32334;DHT22;18810;53.040;8.850;2023-12-28T11:41:32;11.90;99.90
32334;DHT22;18810;53.040;8.850;2023-12-28T11:44:05;11.90;99.90
32334;DHT22;18810;53.040;8.850;2023-12-28T11:46:32;11.90;99.90
32334;DHT22;18810;53.040;8.850;2023-12-28T11:49:07;12.00;99.90
32334;DHT22;18810;53.040;8.850;2023-12-28T11:51:38;11.90;99.90
32334;DHT22;18810;53.040;8.850;2023-12-28T11:54:05;11.90;99.90
32334;DHT22;18810;53.040;8.850;2023-12-28T11:56:31;11.80;99.90
32334;DHT22;18810;53.040;8.850;2023-12-28T11:58:59;11.80;99.90
32334;DHT22;18810;53.040;8.850;2023-12-28T12:01:25;11.80;99.90
32334;DHT22;18810;53.040;8.850;2023-12-28T12:03:50;11.70;99.90
32334;DHT22;18810;53.040;8.850;2023-12-28T12:06:16;11.60;99.90
32334;DHT22;18810;53.040;8.850;2023-12-28T12:08:45;11.60;99.90
32334;DHT22;18810;53.040;8.850;2023-12-28T12:11:12;11.70;99.90
32334;DHT22;18810;53.040;8.850;2023-12-28T12:13:37;11.70;99.90
32334;DHT22;18810;53.040;8.850;2023-12-28T12:16:04;11.80;99.90
32334;DHT22;18810;53.040;8.850;2023-12-28T12:18:32;11.80;99.90
32334;DHT22;18810;53.040;8.850;2023-12-28T12:20:58;11.90;99.90
32334;DHT22;18810;53.040;8.850;2023-12-28T12:23:24;11.90;99.90
32334;DHT22;18810;53.040;8.850;2023-12-28T12:25:51;11.90;99.90
32334;DHT22;18810;53.040;8.850;2023-12-28T12:28:17;11.90;99.90
32334;DHT22;18810;53.040;8.850;2023-12-28T12:30:54;11.90;99.90
32334;DHT22;18810;53.040;8.850;2023-12-28T12:33:20;11.80;99.90
32334;DHT22;18810;53.040;8.850;2023-12-28T12:35:46;11.90;99.90
32334;DHT22;18810;53.040;8.850;2023-12-28T12:38:12;11.80;99.90
32334;DHT22;18810;53.040;8.850;2023-12-28T12:40:38;11.80;99.90
32334;DHT22;18810;53.040;8.850;2023-12-28T12:43:03;11.90;99.90
32334;DHT22;18810;53.040;8.850;2023-12-28T12:45:29;11.90;99.90
32334;DHT22;18810;53.040;8.850;2023-12-28T12:47:55;11.90;99.90
32334;DHT22;18810;53.040;8.850;2023-12-28T12:50:22;11.80;99.90
32334;DHT22;18810;53.040;8.850;2023-12-28T12:52:48;11.70;99.90
32334;DHT22;18810;53.040;8.850;2023-12-28T12:55:14;11.60;99.90
32334;DHT22;18810;53.040;8.850;2023-12-28T12:57:40;11.70;99.90
32334;DHT22;18810;53.040;8.850;2023-12-28T13:00:08;11.70;99.90
32334;DHT22;18810;53.040;8.850;2023-12-28T13:02:35;11.70;99.90
32334;DHT22;18810;53.040;8.850;2023-12-28T13:05:04;11.90;99.90
32334;DHT22;18810;53.040;8.850;2023-12-28T13:07:31;11.70;99.90
32334;DHT22;18810;53.040;8.850;2023-12-28T13:09:57;11.70;99.90
32334;DHT22;18810;53.040;8.850;2023-12-28T13:12:23;11.60;99.90
32334;DHT22;18810;53.040;8.850;2023-12-28T13:14:49;11.60;99.90
32334;DHT22;18810;53.040;8.850;2023-12-28T13:17:15;11.70;99.90
32334;DHT22;18810;53.040;8.850;2023-12-28T13:19:42;11.70;99.90
32334;DHT22;18810;53.040;8.850;2023-12-28T13:22:08;11.70;99.90
32334;DHT22;18810;53.040;8.850;2023-12-28T13:24:33;11.70;99.90
32334;DHT22;18810;53.040;8.850;2023-12-28T13:26:59;11.60;99.90
32334;DHT22;18810;53.040;8.850;2023-12-28T13:29:26;11.70;99.90
32334;DHT22;18810;53.040;8.850;2023-12-28T13:31:51;11.70;99.90
32334;DHT22;18810;53.040;8.850;2023-12-28T13:34:17;11.70;99.90
32334;DHT22;18810;53.040;8.850;2023-12-28T13:36:44;11.70;99.90
32334;DHT22;18810;53.040;8.850;2023-12-28T13:39:10;11.60;99.90
32334;DHT22;18810;53.040;8.850;2023-12-28T13:41:42;11.60;99.90
32334;DHT22;18810;53.040;8.850;2023-12-28T13:44:08;11.60;99.90
32334;DHT22;18810;53.040;8.850;2023-12-28T13:46:38;11.60;99.90
32334;DHT22;18810;53.040;8.850;2023-12-28T13:49:04;11.50;99.90
32334;DHT22;18810;53.040;8.850;2023-12-28T13:51:30;11.60;99.90
32334;DHT22;18810;53.040;8.850;2023-12-28T13:53:56;11.60;99.90
32334;DHT22;18810;53.040;8.850;2023-12-28T13:56:22;11.50;99.90
32334;DHT22;18810;53.040;8.850;2023-12-28T13:58:47;11.50;99.90
32334;DHT22;18810;53.040;8.850;2023-12-28T14:01:13;11.50;99.90
32334;DHT22;18810;53.040;8.850;2023-12-28T14:03:42;11.40;99.90
32334;DHT22;18810;53.040;8.850;2023-12-28T14:06:09;11.50;99.90
32334;DHT22;18810;53.040;8.850;2023-12-28T14:08:35;11.50;99.90
32334;DHT22;18810;53.040;8.850;2023-12-28T14:11:02;11.50;99.90
32334;DHT22;18810;53.040;8.850;2023-12-28T14:13:27;11.40;99.90
32334;DHT22;18810;53.040;8.850;2023-12-28T14:15:54;11.50;99.90
32334;DHT22;18810;53.040;8.850;2023-12-28T14:18:19;11.40;99.90
32334;DHT22;18810;53.040;8.850;2023-12-28T14:20:45;11.50;99.90
32334;DHT22;18810;53.040;8.850;2023-12-28T14:23:11;11.50;99.90
32334;DHT22;18810;53.040;8.850;2023-12-28T14:25:38;11.40;99.90
32334;DHT22;18810;53.040;8.850;2023-12-28T14:28:04;11.40;99.90
32334;DHT22;18810;53.040;8.850;2023-12-28T14:30:30;11.40;99.90
32334;DHT22;18810;53.040;8.850;2023-12-28T14:32:56;11.40;99.90
32334;DHT22;18810;53.040;8.850;2023-12-28T14:35:22;11.30;99.90
32334;DHT22;18810;53.040;8.850;2023-12-28T14:37:51;11.20;99.90
32334;DHT22;18810;53.040;8.850;2023-12-28T14:40:16;11.20;99.90
32334;DHT22;18810;53.040;8.850;2023-12-28T14:42:42;11.30;99.90
32334;DHT22;18810;53.040;8.850;2023-12-28T14:45:08;11.30;99.90
32334;DHT22;18810;53.040;8.850;2023-12-28T14:47:34;11.30;99.90
32334;DHT22;18810;53.040;8.850;2023-12-28T14:50:01;11.30;99.90
32334;DHT22;18810;53.040;8.850;2023-12-28T14:52:27;11.00;99.90
32334;DHT22;18810;53.040;8.850;2023-12-28T14:54:53;11.20;99.90
32334;DHT22;18810;53.040;8.850;2023-12-28T14:57:20;11.20;99.90
32334;DHT22;18810;53.040;8.850;2023-12-28T14:59:46;11.30;99.90
32334;DHT22;18810;53.040;8.850;2023-12-28T15:02:12;11.30;99.90
32334;DHT22;18810;53.040;8.850;2023-12-28T15:04:37;11.30;99.90
32334;DHT22;18810;53.040;8.850;2023-12-28T15:07:06;11.30;99.90
32334;DHT22;18810;53.040;8.850;2023-12-28T15:09:32;11.30;99.90
32334;DHT22;18810;53.040;8.850;2023-12-28T15:11:59;11.30;99.90
32334;DHT22;18810;53.040;8.850;2023-12-28T15:14:25;11.30;99.90
32334;DHT22;18810;53.040;8.850;2023-12-28T15:16:51;11.20;99.90
32334;DHT22;18810;53.040;8.850;2023-12-28T15:19:17;11.20;99.90
32334;DHT22;18810;53.040;8.850;2023-12-28T15:21:43;11.30;99.90
32334;DHT22;18810;53.040;8.850;2023-12-28T15:24:09;11.20;99.90
32334;DHT22;18810;53.040;8.850;2023-12-28T15:26:35;11.20;99.90
32334;DHT22;18810;53.040;8.850;2023-12-28T15:29:02;11.20;99.90
32334;DHT22;18810;53.040;8.850;2023-12-28T15:31:28;11.20;99.90
32334;DHT22;18810;53.040;8.850;2023-12-28T15:33:55;11.10;99.90
32334;DHT22;18810;53.040;8.850;2023-12-28T15:36:22;11.10;99.90
32334;DHT22;18810;53.040;8.850;2023-12-28T15:38:47;11.10;99.90
32334;DHT22;18810;53.040;8.850;2023-12-28T15:41:13;11.10;99.90
32334;DHT22;18810;53.040;8.850;2023-12-28T15:43:39;11.20;99.90
32334;DHT22;18810;53.040;8.850;2023-12-28T15:46:05;11.10;99.90
32334;DHT22;18810;53.040;8.850;2023-12-28T15:48:30;11.10;99.90
32334;DHT22;18810;53.040;8.850;2023-12-28T15:50:56;11.10;99.90
32334;DHT22;18810;53.040;8.850;2023-12-28T15:53:22;11.10;99.90
32334;DHT22;18810;53.040;8.850;2023-12-28T15:55:47;11.10;99.90
32334;DHT22;18810;53.040;8.850;2023-12-28T15:58:13;10.90;99.90